Time;durP1;ratioP1;P1;durP2;ratioP2;P2;SDS_P1;SDS_P2;PMS_P1;PMS_P2;Temp;Humidity;BMP_temperature;BMP_pressure;BME280_temperature;BME280_humidity;BME280_pressure;Samples;Min_cycle;Max_cycle;Signal;HPM_P1;HPM_P2
2022/11/30 00:01:20;;;;;;;39.80;27.30;;;6.00;98.70;;;;;;5056622;28;20217;-67
2022/11/30 00:03:47;;;;;;;44.90;29.63;;;6.00;98.70;;;;;;5062890;28;20198;-67
2022/11/30 00:06:21;;;;;;;41.57;27.43;;;6.00;98.70;;;;;;5061713;28;20224;-67
2022/11/30 00:08:55;;;;;;;39.63;28.27;;;6.00;98.80;;;;;;5060774;28;20192;-67
2022/11/30 00:11:24;;;;;;;38.47;29.07;;;6.00;98.80;;;;;;5062767;28;20302;-67
2022/11/30 00:13:51;;;;;;;45.33;28.67;;;6.00;98.80;;;;;;5063247;28;20224;-67
2022/11/30 00:16:18;;;;;;;43.40;27.87;;;6.00;98.90;;;;;;5062288;28;20535;-67
2022/11/30 00:18:46;;;;;;;43.97;28.63;;;5.90;98.90;;;;;;5065179;28;20227;-67
2022/11/30 00:21:14;;;;;;;40.20;27.50;;;5.90;98.90;;;;;;5065438;28;20213;-67
2022/11/30 00:23:44;;;;;;;37.10;27.23;;;5.90;98.80;;;;;;5056331;28;20213;-67
2022/11/30 00:26:15;;;;;;;41.00;28.03;;;5.90;98.70;;;;;;5062372;28;20205;-67
2022/11/30 00:28:44;;;;;;;42.07;28.53;;;5.90;98.70;;;;;;5062918;28;20204;-67
2022/11/30 00:31:13;;;;;;;42.87;28.93;;;5.90;98.80;;;;;;5064494;28;20204;-67
2022/11/30 00:33:41;;;;;;;41.43;28.03;;;5.90;98.80;;;;;;5058445;28;20201;-67
2022/11/30 00:36:14;;;;;;;42.80;28.77;;;5.90;98.90;;;;;;5061441;28;20666;-67
2022/11/30 00:38:41;;;;;;;42.67;28.83;;;5.90;98.90;;;;;;5054910;28;20214;-67
2022/11/30 00:41:09;;;;;;;42.40;29.03;;;5.90;98.90;;;;;;5061294;28;20244;-67
2022/11/30 00:43:36;;;;;;;46.90;31.10;;;5.90;98.80;;;;;;5063894;28;20543;-69
2022/11/30 00:46:04;;;;;;;40.73;29.43;;;5.80;98.80;;;;;;5060592;28;20212;-67
2022/11/30 00:48:31;;;;;;;46.43;30.70;;;5.80;98.80;;;;;;5063562;28;20208;-67
2022/11/30 00:50:58;;;;;;;42.97;28.50;;;5.80;98.80;;;;;;5064465;28;20508;-67
2022/11/30 00:53:25;;;;;;;45.27;30.50;;;5.80;98.90;;;;;;5057427;28;20266;-67
2022/11/30 00:55:53;;;;;;;43.97;29.00;;;5.70;98.90;;;;;;5060691;28;20550;-67
2022/11/30 00:58:20;;;;;;;45.80;31.17;;;5.70;99.00;;;;;;5062214;28;20639;-67
2022/11/30 01:00:47;;;;;;;49.63;28.63;;;5.70;99.00;;;;;;5062563;28;20219;-67
2022/11/30 01:03:14;;;;;;;45.20;28.87;;;5.70;99.00;;;;;;5063150;28;20258;-67
2022/11/30 01:05:45;;;;;;;41.93;28.83;;;5.60;99.00;;;;;;5062451;28;20266;-66
2022/11/30 01:08:12;;;;;;;40.77;28.03;;;5.60;99.00;;;;;;5073105;28;20659;-68
2022/11/30 01:10:41;;;;;;;47.50;28.03;;;5.60;99.10;;;;;;5067307;28;20737;-67
2022/11/30 01:13:11;;;;;;;47.40;29.53;;;5.50;99.20;;;;;;5060880;28;20204;-67
2022/11/30 01:15:41;;;;;;;41.67;27.57;;;5.50;99.20;;;;;;5063816;28;20212;-67
2022/11/30 01:18:08;;;;;;;45.57;28.07;;;5.50;99.30;;;;;;5068949;28;20215;-67
2022/11/30 01:20:40;;;;;;;42.73;29.50;;;5.40;99.30;;;;;;5068688;28;20274;-67
2022/11/30 01:23:07;;;;;;;43.87;29.00;;;5.40;99.30;;;;;;5062888;28;20204;-66
2022/11/30 01:25:35;;;;;;;42.90;28.47;;;5.50;99.40;;;;;;5068376;28;20567;-67
2022/11/30 01:28:02;;;;;;;47.10;29.17;;;5.40;99.40;;;;;;5069936;28;20207;-67
2022/11/30 01:30:29;;;;;;;44.30;29.20;;;5.40;99.40;;;;;;5067939;28;20205;-67
2022/11/30 01:33:01;;;;;;;45.40;28.23;;;5.40;99.40;;;;;;5066526;28;20294;-66
2022/11/30 01:35:28;;;;;;;46.07;29.13;;;5.40;99.40;;;;;;5061874;28;20204;-67
2022/11/30 01:37:55;;;;;;;45.93;30.70;;;5.30;99.40;;;;;;5066726;28;20212;-67
2022/11/30 01:40:22;;;;;;;44.97;28.13;;;5.30;99.50;;;;;;5065384;28;20616;-67
2022/11/30 01:42:49;;;;;;;45.23;29.93;;;5.30;99.50;;;;;;5062906;28;20202;-67
2022/11/30 01:45:16;;;;;;;44.80;28.63;;;5.40;99.50;;;;;;5063896;28;20208;-66
2022/11/30 01:47:47;;;;;;;36.40;26.83;;;5.30;99.40;;;;;;5063659;28;20207;-66
2022/11/30 01:50:21;;;;;;;43.33;29.23;;;5.30;99.40;;;;;;5065531;28;20651;-67
2022/11/30 01:52:55;;;;;;;42.40;27.40;;;5.30;99.40;;;;;;5071208;28;20193;-67
2022/11/30 01:55:35;;;;;;;45.70;29.50;;;5.30;99.40;;;;;;5065801;28;20538;-67
2022/11/30 01:58:24;;;;;;;36.43;26.93;;;5.30;99.50;;;;;;5067041;28;20257;-67
2022/11/30 02:00:51;;;;;;;48.57;28.37;;;5.30;99.40;;;;;;5062246;28;20623;-66
2022/11/30 02:03:36;;;;;;;44.57;25.80;;;5.30;99.40;;;;;;5060245;28;20291;-67
2022/11/30 02:06:04;;;;;;;36.83;25.57;;;5.20;99.40;;;;;;5060866;28;20285;-67
2022/11/30 02:08:32;;;;;;;39.43;26.13;;;5.20;99.40;;;;;;5065457;28;20258;-67
2022/11/30 02:11:04;;;;;;;38.80;26.13;;;5.20;99.40;;;;;;5063865;28;20655;-67
2022/11/30 02:13:57;;;;;;;41.93;27.23;;;5.20;99.30;;;;;;5064455;28;20209;-67
2022/11/30 02:16:27;;;;;;;38.30;26.20;;;5.20;99.20;;;;;;5064511;28;20287;-67
2022/11/30 02:19:13;;;;;;;38.83;24.63;;;5.20;99.10;;;;;;5071193;28;20255;-67
2022/11/30 02:22:02;;;;;;;39.90;25.70;;;5.20;99.00;;;;;;5059989;28;20219;-67
2022/11/30 02:24:51;;;;;;;43.67;26.30;;;5.20;99.00;;;;;;5062655;28;20300;-66
2022/11/30 02:27:36;;;;;;;41.77;25.53;;;5.10;98.90;;;;;;5064548;28;20640;-67
2022/11/30 02:30:10;;;;;;;37.97;24.80;;;5.10;98.80;;;;;;5064994;28;20297;-67
2022/11/30 02:32:46;;;;;;;39.83;25.27;;;5.10;98.70;;;;;;5063624;28;20593;-67
2022/11/30 02:35:17;;;;;;;37.80;25.83;;;5.10;98.60;;;;;;5062975;28;20279;-67
2022/11/30 02:37:46;;;;;;;39.80;25.93;;;5.00;98.60;;;;;;5063327;28;20274;-67
2022/11/30 02:40:16;;;;;;;42.57;25.70;;;5.10;98.60;;;;;;5064045;28;20304;-67
2022/11/30 02:42:44;;;;;;;38.67;25.80;;;5.00;98.60;;;;;;5067869;28;20222;-66
2022/11/30 02:45:11;;;;;;;41.50;26.43;;;5.00;98.60;;;;;;5065963;28;20207;-66
2022/11/30 02:48:12;;;;;;;40.93;26.80;;;5.00;98.60;;;;;;5063408;28;20545;-66
2022/11/30 02:50:56;;;;;;;42.17;26.50;;;5.00;98.60;;;;;;5051855;28;20306;-66
2022/11/30 02:53:24;;;;;;;39.37;26.70;;;4.90;98.50;;;;;;5065292;28;20197;-67
2022/11/30 02:55:53;;;;;;;41.10;26.23;;;4.90;98.50;;;;;;5059729;28;20193;-67
2022/11/30 02:58:21;;;;;;;48.80;27.27;;;4.90;98.60;;;;;;5062357;28;20193;-66
2022/11/30 03:00:48;;;;;;;40.07;25.43;;;4.80;98.60;;;;;;5060962;28;20208;-66
2022/11/30 03:03:15;;;;;;;38.23;25.20;;;4.80;98.60;;;;;;5061406;28;20527;-66
2022/11/30 03:05:42;;;;;;;44.13;26.83;;;4.80;98.70;;;;;;5063284;28;20200;-67
2022/11/30 03:08:09;;;;;;;37.97;24.93;;;4.80;98.60;;;;;;5049194;28;20495;-66
2022/11/30 03:10:36;;;;;;;43.17;26.70;;;4.80;98.70;;;;;;5063405;28;20240;-67
2022/11/30 03:13:03;;;;;;;41.97;27.67;;;4.80;98.60;;;;;;5060588;28;20202;-66
2022/11/30 03:15:30;;;;;;;41.97;27.40;;;4.80;98.90;;;;;;5062070;28;20207;-67
2022/11/30 03:18:01;;;;;;;42.43;26.73;;;4.70;98.60;;;;;;5063095;28;20204;-67
2022/11/30 03:20:28;;;;;;;44.17;26.63;;;4.70;98.60;;;;;;5066636;28;20229;-67
2022/11/30 03:23:00;;;;;;;42.07;27.57;;;4.80;98.60;;;;;;5063436;28;20201;-66
2022/11/30 03:25:27;;;;;;;38.50;24.53;;;4.80;98.50;;;;;;5064286;28;20631;-66
2022/11/30 03:27:54;;;;;;;36.17;24.43;;;4.80;98.50;;;;;;5063595;28;20207;-66
2022/11/30 03:30:21;;;;;;;41.53;24.97;;;4.80;98.50;;;;;;5066597;28;20200;-66
2022/11/30 03:32:50;;;;;;;40.67;25.80;;;4.80;98.50;;;;;;5060376;28;20208;-66
2022/11/30 03:35:18;;;;;;;42.63;25.50;;;4.80;98.40;;;;;;5060683;28;20665;-66
2022/11/30 03:37:46;;;;;;;37.97;26.03;;;4.70;98.40;;;;;;5058811;28;20214;-67
2022/11/30 03:40:13;;;;;;;40.80;24.90;;;4.80;98.30;;;;;;5064923;28;20205;-66
2022/11/30 03:42:40;;;;;;;37.60;24.17;;;4.80;98.30;;;;;;5062299;28;20284;-66
2022/11/30 03:45:08;;;;;;;37.40;25.30;;;4.80;98.30;;;;;;5061713;28;20577;-66
2022/11/30 03:47:36;;;;;;;40.10;27.30;;;4.80;98.30;;;;;;5059705;28;20274;-67
2022/11/30 03:50:03;;;;;;;47.93;27.83;;;4.70;98.30;;;;;;5062196;28;20230;-66
2022/11/30 03:52:30;;;;;;;49.97;28.63;;;4.70;98.30;;;;;;5067290;28;20517;-66
2022/11/30 03:54:57;;;;;;;40.77;26.37;;;4.70;98.30;;;;;;5062166;28;20635;-67
2022/11/30 03:57:25;;;;;;;42.40;26.40;;;4.70;98.20;;;;;;5064664;28;20194;-66
2022/11/30 03:59:52;;;;;;;40.97;25.83;;;4.70;98.20;;;;;;5066137;28;20219;-66
2022/11/30 04:02:19;;;;;;;39.37;24.93;;;4.70;98.30;;;;;;5065781;28;20216;-66
2022/11/30 04:04:46;;;;;;;40.13;25.20;;;4.60;98.30;;;;;;5064600;28;20239;-66
2022/11/30 04:07:13;;;;;;;43.30;25.23;;;4.60;98.30;;;;;;5056688;28;20232;-67
2022/11/30 04:09:40;;;;;;;42.53;25.80;;;4.60;98.30;;;;;;5061380;28;20192;-66
2022/11/30 04:12:07;;;;;;;39.17;24.77;;;4.60;98.20;;;;;;5064750;28;20243;-66
2022/11/30 04:14:34;;;;;;;39.13;24.33;;;4.60;98.30;;;;;;5061204;28;20200;-67
2022/11/30 04:17:01;;;;;;;38.07;24.87;;;4.50;98.20;;;;;;5063927;28;20275;-66
2022/11/30 04:19:29;;;;;;;35.57;24.13;;;4.50;98.20;;;;;;5052271;28;20212;-66
2022/11/30 04:21:56;;;;;;;39.70;24.17;;;4.50;98.30;;;;;;5066496;28;20228;-66
2022/11/30 04:24:23;;;;;;;36.30;24.97;;;4.50;98.20;;;;;;5060917;28;20273;-66
2022/11/30 04:26:50;;;;;;;37.53;24.63;;;4.50;98.20;;;;;;5058909;28;20253;-67
2022/11/30 04:29:17;;;;;;;44.33;25.40;;;4.40;98.10;;;;;;5066146;28;20263;-66
2022/11/30 04:31:44;;;;;;;36.47;24.67;;;4.40;98.10;;;;;;5060620;28;20196;-66
2022/11/30 04:34:11;;;;;;;36.10;24.23;;;4.40;98.10;;;;;;5065366;28;20208;-66
2022/11/30 04:36:38;;;;;;;33.07;22.00;;;4.40;98.00;;;;;;5063575;28;20553;-66
2022/11/30 04:39:05;;;;;;;35.73;23.50;;;4.30;98.00;;;;;;5060574;28;20192;-66
2022/11/30 04:41:32;;;;;;;30.00;20.93;;;4.30;98.00;;;;;;5058180;28;20684;-66
2022/11/30 04:43:59;;;;;;;41.27;24.30;;;4.20;97.90;;;;;;5056981;28;20645;-66
2022/11/30 04:46:27;;;;;;;33.10;22.80;;;4.20;97.90;;;;;;5058426;28;20654;-66
2022/11/30 04:48:54;;;;;;;33.00;21.90;;;4.10;97.80;;;;;;5062733;28;20190;-66
2022/11/30 04:51:21;;;;;;;31.83;21.70;;;4.10;97.80;;;;;;5059357;28;20221;-66
2022/11/30 04:53:48;;;;;;;33.33;21.00;;;4.00;97.80;;;;;;5060873;28;20555;-66
2022/11/30 04:56:15;;;;;;;29.63;20.47;;;4.00;97.80;;;;;;5060757;28;20204;-66
2022/11/30 04:58:42;;;;;;;31.20;21.07;;;4.00;97.80;;;;;;5063509;28;20200;-66
2022/11/30 05:01:09;;;;;;;29.40;21.00;;;4.00;97.80;;;;;;5060240;28;20220;-66
2022/11/30 05:03:36;;;;;;;29.90;20.53;;;4.00;97.80;;;;;;5064799;28;20204;-66
2022/11/30 05:06:03;;;;;;;27.80;20.00;;;4.00;97.80;;;;;;5063424;28;20209;-66
2022/11/30 05:08:30;;;;;;;29.63;21.00;;;3.90;97.70;;;;;;5061579;28;20203;-66
2022/11/30 05:10:57;;;;;;;28.87;19.87;;;4.00;97.80;;;;;;5062952;28;20244;-66
2022/11/30 05:13:25;;;;;;;25.73;20.27;;;3.90;97.80;;;;;;5062585;28;20219;-66
2022/11/30 05:15:52;;;;;;;28.73;20.93;;;4.00;97.80;;;;;;5064066;28;20195;-66
2022/11/30 05:18:20;;;;;;;27.17;19.37;;;4.00;97.90;;;;;;5061751;28;20279;-66
2022/11/30 05:20:49;;;;;;;27.27;21.50;;;4.00;97.80;;;;;;5060208;28;20670;-66
2022/11/30 05:23:16;;;;;;;30.37;22.37;;;4.00;97.80;;;;;;5064209;28;20259;-66
2022/11/30 05:25:44;;;;;;;33.67;23.20;;;4.00;97.80;;;;;;5057665;28;20581;-66
2022/11/30 05:28:11;;;;;;;33.77;24.43;;;4.00;97.80;;;;;;5066137;28;20537;-66
2022/11/30 05:30:40;;;;;;;35.97;24.03;;;4.10;97.80;;;;;;5061444;28;20212;-66
2022/11/30 05:33:07;;;;;;;35.53;25.50;;;4.10;97.80;;;;;;5075587;28;20205;-66
2022/11/30 05:35:35;;;;;;;35.07;24.50;;;4.10;97.90;;;;;;5057405;28;20209;-66
2022/11/30 05:38:02;;;;;;;34.57;25.87;;;4.10;97.90;;;;;;5058700;28;20636;-67
2022/11/30 05:40:31;;;;;;;36.10;26.37;;;4.10;97.90;;;;;;5061447;28;20230;-66
2022/11/30 05:43:00;;;;;;;34.87;24.60;;;4.20;97.90;;;;;;5060980;28;20197;-67
2022/11/30 05:45:28;;;;;;;39.37;26.27;;;4.20;97.90;;;;;;5060805;28;20638;-67
2022/11/30 05:47:55;;;;;;;34.67;25.03;;;4.20;97.80;;;;;;5062267;28;20208;-66
2022/11/30 05:50:22;;;;;;;35.50;24.63;;;4.20;97.90;;;;;;5066729;28;20197;-66
2022/11/30 05:52:55;;;;;;;34.80;25.50;;;4.20;97.80;;;;;;5058393;28;20209;-67
2022/11/30 05:55:23;;;;;;;35.07;25.60;;;4.30;97.70;;;;;;5072427;28;20584;-66
2022/11/30 05:57:50;;;;;;;37.07;26.80;;;4.20;97.60;;;;;;5071356;28;20197;-66
2022/11/30 06:00:17;;;;;;;35.80;25.17;;;4.30;97.70;;;;;;5067117;28;20199;-66
2022/11/30 06:02:45;;;;;;;35.03;25.00;;;4.30;97.70;;;;;;5078251;28;20259;-66
2022/11/30 06:05:12;;;;;;;38.73;26.67;;;4.30;97.60;;;;;;5061160;28;20201;-66
2022/11/30 06:07:40;;;;;;;38.73;27.20;;;4.40;97.70;;;;;;5064165;28;20193;-66
2022/11/30 06:10:07;;;;;;;40.33;27.50;;;4.40;97.70;;;;;;5065804;28;20234;-66
2022/11/30 06:12:34;;;;;;;37.63;26.40;;;4.40;97.70;;;;;;5068038;28;20224;-66
2022/11/30 06:15:02;;;;;;;39.80;28.13;;;4.40;97.80;;;;;;5067293;28;20224;-67
2022/11/30 06:17:29;;;;;;;39.70;27.23;;;4.50;97.90;;;;;;5067508;28;20239;-67
2022/11/30 06:19:56;;;;;;;36.80;26.93;;;4.50;97.90;;;;;;5066309;28;20212;-67
2022/11/30 06:22:23;;;;;;;35.97;25.93;;;4.50;98.00;;;;;;5064958;28;20220;-66
2022/11/30 06:24:50;;;;;;;37.80;27.47;;;4.60;98.00;;;;;;5064389;28;20193;-67
2022/11/30 06:27:17;;;;;;;40.13;28.60;;;4.60;98.00;;;;;;5059110;28;20200;-67
2022/11/30 06:29:44;;;;;;;38.90;27.20;;;4.60;98.00;;;;;;5062976;28;20283;-67
2022/11/30 06:32:11;;;;;;;38.63;27.43;;;4.60;98.00;;;;;;5064099;28;20269;-66
2022/11/30 06:34:38;;;;;;;41.37;26.50;;;4.70;98.00;;;;;;5065773;28;20212;-66
2022/11/30 06:37:05;;;;;;;35.40;25.80;;;4.70;98.00;;;;;;5067089;28;20208;-67
2022/11/30 06:39:32;;;;;;;36.57;26.87;;;4.70;98.00;;;;;;5070268;28;20211;-66
2022/11/30 06:42:20;;;;;;;31.67;25.10;;;4.70;98.00;;;;;;5063371;28;20236;-67
2022/11/30 06:44:47;;;;;;;35.67;25.23;;;4.70;98.00;;;;;;5059394;28;20211;-67
2022/11/30 06:47:15;;;;;;;37.73;25.47;;;4.60;97.90;;;;;;5064657;28;20572;-66
2022/11/30 06:49:42;;;;;;;36.10;25.37;;;4.60;97.90;;;;;;5063290;28;20283;-67
2022/11/30 06:52:09;;;;;;;34.07;23.97;;;4.60;97.90;;;;;;5063606;28;20197;-66
2022/11/30 06:54:36;;;;;;;35.10;25.83;;;4.60;97.80;;;;;;5063128;28;20196;-67
2022/11/30 06:57:03;;;;;;;38.17;26.20;;;4.60;97.80;;;;;;5063296;28;20211;-67
2022/11/30 06:59:30;;;;;;;40.03;26.63;;;4.50;97.80;;;;;;5063504;28;20204;-67
2022/11/30 07:01:57;;;;;;;34.90;26.87;;;4.50;97.80;;;;;;5061326;28;20540;-66
2022/11/30 07:04:32;;;;;;;41.67;27.63;;;4.50;97.90;;;;;;5062926;28;20196;-66
2022/11/30 07:06:59;;;;;;;37.67;26.93;;;4.50;97.90;;;;;;5062663;28;20206;-67
2022/11/30 07:09:26;;;;;;;38.33;26.17;;;4.50;97.90;;;;;;5063167;28;20293;-66
2022/11/30 07:11:53;;;;;;;38.17;28.00;;;4.50;97.90;;;;;;5061884;28;20238;-68
2022/11/30 07:14:20;;;;;;;40.00;28.63;;;4.50;97.90;;;;;;5063005;28;20200;-67
2022/11/30 07:16:47;;;;;;;40.70;29.10;;;4.50;98.00;;;;;;5064272;28;20226;-68
2022/11/30 07:19:14;;;;;;;47.53;29.33;;;4.60;98.10;;;;;;5062484;28;20226;-67
2022/11/30 07:21:41;;;;;;;43.37;28.53;;;4.60;98.00;;;;;;5066530;28;20284;-67
2022/11/30 07:26:59;;;;;;;40.30;28.43;;;4.70;98.10;;;;;;5064109;28;20196;-67
2022/11/30 07:29:26;;;;;;;43.43;29.17;;;4.70;98.00;;;;;;5066157;28;20200;-67
2022/11/30 07:31:54;;;;;;;41.03;29.03;;;4.70;98.00;;;;;;5061120;28;20220;-67
2022/11/30 07:34:21;;;;;;;43.80;30.03;;;4.80;98.00;;;;;;5061125;28;20201;-66
2022/11/30 07:36:48;;;;;;;45.23;30.67;;;4.80;97.90;;;;;;5059748;28;20230;-67
2022/11/30 07:39:15;;;;;;;43.47;30.17;;;4.80;97.90;;;;;;5062619;28;20204;-67
2022/11/30 07:41:42;;;;;;;50.10;32.07;;;4.90;98.00;;;;;;5064154;28;20278;-66
2022/11/30 07:44:12;;;;;;;45.03;32.27;;;4.90;98.00;;;;;;5062841;28;20236;-67
2022/11/30 07:46:39;;;;;;;45.80;33.83;;;5.00;98.10;;;;;;5063258;28;20198;-67
2022/11/30 07:49:09;;;;;;;48.80;32.03;;;5.00;98.10;;;;;;5068719;28;20261;-67
2022/11/30 07:51:36;;;;;;;48.83;32.70;;;5.20;98.20;;;;;;5064168;28;20205;-67
2022/11/30 07:54:03;;;;;;;42.70;30.53;;;5.20;98.10;;;;;;5061282;28;20210;-67
2022/11/30 07:56:30;;;;;;;46.63;31.93;;;5.30;98.20;;;;;;5062780;28;20201;-66
2022/11/30 07:59:00;;;;;;;46.43;30.90;;;5.40;98.20;;;;;;5057476;28;20216;-67
2022/11/30 08:01:31;;;;;;;45.90;30.37;;;5.40;98.20;;;;;;5063125;28;20193;-67
2022/11/30 08:03:59;;;;;;;47.47;31.60;;;5.60;98.20;;;;;;5064520;28;20629;-67
2022/11/30 08:06:30;;;;;;;45.70;30.37;;;5.60;98.20;;;;;;5059873;28;20208;-67
2022/11/30 08:09:00;;;;;;;46.70;30.80;;;5.70;98.10;;;;;;5061543;28;20197;-66
2022/11/30 08:11:30;;;;;;;41.83;29.33;;;5.70;98.10;;;;;;5069241;28;20257;-67
2022/11/30 08:13:57;;;;;;;46.13;30.47;;;5.80;98.10;;;;;;5060757;28;20193;-67
2022/11/30 08:16:27;;;;;;;41.47;27.80;;;5.90;98.10;;;;;;5064022;28;20595;-67
2022/11/30 08:18:55;;;;;;;42.20;28.93;;;5.90;97.80;;;;;;5064432;28;20221;-67
2022/11/30 08:21:23;;;;;;;46.40;29.20;;;6.00;97.50;;;;;;5061329;28;20628;-67
2022/11/30 08:23:55;;;;;;;41.67;27.50;;;6.00;97.40;;;;;;5064466;28;20197;-66
2022/11/30 08:26:31;;;;;;;40.70;27.57;;;6.10;97.40;;;;;;5057979;28;20515;-67
2022/11/30 08:29:00;;;;;;;37.70;26.50;;;6.10;97.40;;;;;;5078058;28;20188;-67
2022/11/30 08:31:33;;;;;;;41.40;27.13;;;6.20;97.50;;;;;;5064243;28;20235;-66
2022/11/30 08:34:01;;;;;;;40.20;25.77;;;6.30;97.30;;;;;;5066612;28;20205;-67
2022/11/30 08:36:29;;;;;;;35.63;23.83;;;6.40;96.90;;;;;;5066994;28;20581;-67
2022/11/30 08:38:57;;;;;;;34.47;23.60;;;6.50;96.80;;;;;;5065086;28;20208;-67
2022/11/30 08:41:25;;;;;;;37.80;24.90;;;6.60;96.60;;;;;;5065730;28;20687;-67
2022/11/30 08:43:53;;;;;;;36.43;24.13;;;6.60;96.40;;;;;;5056394;28;20189;-67
2022/11/30 08:46:22;;;;;;;33.73;23.63;;;6.70;96.00;;;;;;5061986;28;20271;-67
2022/11/30 08:49:09;;;;;;;35.20;24.27;;;6.70;95.50;;;;;;5060365;28;20201;-67
2022/11/30 08:51:54;;;;;;;35.87;23.70;;;6.80;95.20;;;;;;5058636;28;20192;-67
2022/11/30 08:54:43;;;;;;;41.50;24.27;;;6.90;95.30;;;;;;5059959;28;20639;-67
2022/11/30 08:57:13;;;;;;;33.70;21.77;;;7.10;95.40;;;;;;5063552;28;20263;-67
2022/11/30 08:59:40;;;;;;;32.17;22.33;;;7.20;95.20;;;;;;5058065;28;20220;-67
2022/11/30 09:02:10;;;;;;;34.97;23.40;;;7.30;94.90;;;;;;5061099;28;20225;-67
2022/11/30 09:04:37;;;;;;;33.40;21.90;;;7.40;94.50;;;;;;5061425;28;20198;-67
2022/11/30 09:07:04;;;;;;;35.03;23.03;;;7.50;93.80;;;;;;5059237;28;20229;-67
2022/11/30 09:09:31;;;;;;;36.53;23.57;;;7.60;93.20;;;;;;5061617;28;20212;-67
2022/11/30 09:11:59;;;;;;;34.53;22.93;;;7.70;93.10;;;;;;5060316;28;20261;-67
2022/11/30 09:14:26;;;;;;;31.57;22.03;;;7.70;92.80;;;;;;5061958;28;20255;-67
2022/11/30 09:16:54;;;;;;;31.10;20.87;;;7.70;92.00;;;;;;5065005;28;20215;-66
2022/11/30 09:19:21;;;;;;;32.13;21.17;;;7.80;91.90;;;;;;5066365;28;20205;-66
2022/11/30 09:21:48;;;;;;;31.83;21.47;;;7.80;91.40;;;;;;5064026;28;20235;-67
2022/11/30 09:24:19;;;;;;;32.33;21.87;;;7.80;91.00;;;;;;5060217;28;20621;-66
2022/11/30 09:26:46;;;;;;;30.77;21.40;;;7.90;91.20;;;;;;5062547;28;20214;-66
2022/11/30 09:29:13;;;;;;;34.30;21.60;;;7.90;91.40;;;;;;5067811;28;20201;-66
2022/11/30 09:31:40;;;;;;;29.57;20.30;;;7.90;91.30;;;;;;5064732;28;20633;-67
2022/11/30 09:34:10;;;;;;;33.40;20.30;;;8.00;90.50;;;;;;5064306;28;20204;-67
2022/11/30 09:36:38;;;;;;;29.10;20.23;;;8.10;90.30;;;;;;5074024;28;20544;-67
2022/11/30 09:39:05;;;;;;;33.33;21.20;;;8.10;90.00;;;;;;5065138;28;20194;-67
2022/11/30 09:41:52;;;;;;;31.00;21.07;;;8.20;89.50;;;;;;5069762;28;20204;-66
2022/11/30 09:44:28;;;;;;;33.50;20.43;;;8.20;89.70;;;;;;5069483;28;20274;-66
2022/11/30 09:47:14;;;;;;;35.47;20.40;;;8.30;89.60;;;;;;5064824;28;20209;-66
2022/11/30 09:49:46;;;;;;;29.97;20.47;;;8.30;89.30;;;;;;5068084;28;20202;-66
2022/11/30 09:52:54;;;;;;;32.37;21.17;;;8.30;88.80;;;;;;5061960;28;20199;-66
2022/11/30 09:55:29;;;;;;;33.27;22.53;;;8.30;89.00;;;;;;5070526;28;20202;-66
2022/11/30 09:58:02;;;;;;;35.97;21.27;;;8.40;89.30;;;;;;5072545;28;20201;-66
2022/11/30 10:00:30;;;;;;;28.70;20.13;;;8.50;89.30;;;;;;5070346;28;20648;-67
2022/11/30 10:03:01;;;;;;;32.83;19.43;;;8.50;89.10;;;;;;5065131;28;20241;-66
2022/11/30 10:05:34;;;;;;;28.23;19.27;;;8.50;88.50;;;;;;5062506;28;20279;-67
2022/11/30 10:08:01;;;;;;;31.80;18.47;;;8.50;88.60;;;;;;5066420;28;20209;-67
2022/11/30 10:10:43;;;;;;;26.87;17.80;;;8.50;88.80;;;;;;5061232;28;20256;-66
2022/11/30 10:13:40;;;;;;;28.20;17.23;;;8.60;87.80;;;;;;5065730;28;20281;-67
2022/11/30 10:16:10;;;;;;;26.10;17.13;;;8.70;88.00;;;;;;5063869;28;20207;-67
2022/11/30 10:19:02;;;;;;;28.40;17.67;;;8.80;87.90;;;;;;5066867;28;20206;-67
2022/11/30 10:22:01;;;;;;;29.50;18.33;;;8.90;87.30;;;;;;5065652;28;20234;-67
2022/11/30 10:24:52;;;;;;;29.17;18.33;;;8.90;87.10;;;;;;5061381;28;20205;-67
2022/11/30 10:27:31;;;;;;;31.37;17.47;;;9.00;85.70;;;;;;5060821;28;20205;-67
2022/11/30 10:30:00;;;;;;;23.10;15.87;;;9.10;85.40;;;;;;5067046;28;20197;-67
2022/11/30 10:32:39;;;;;;;28.13;17.40;;;9.10;84.90;;;;;;5065686;28;20194;-67
2022/11/30 10:35:35;;;;;;;24.13;17.17;;;9.20;85.10;;;;;;5064791;28;20255;-67
2022/11/30 10:38:24;;;;;;;27.57;17.07;;;9.30;84.60;;;;;;5066263;28;20203;-67
2022/11/30 10:41:09;;;;;;;28.37;17.90;;;9.30;84.00;;;;;;5063202;28;20195;-67
2022/11/30 10:44:09;;;;;;;26.37;16.70;;;9.40;84.10;;;;;;5060550;28;20210;-67
2022/11/30 10:46:39;;;;;;;27.07;16.67;;;9.40;84.20;;;;;;5060417;28;20203;-67
2022/11/30 10:49:13;;;;;;;27.97;17.50;;;9.40;84.50;;;;;;5064022;28;20202;-67
2022/11/30 10:51:44;;;;;;;28.47;18.27;;;9.50;84.50;;;;;;5066328;28;20596;-67
2022/11/30 10:54:17;;;;;;;25.83;17.47;;;9.50;85.30;;;;;;5081045;28;20198;-67
2022/11/30 10:56:45;;;;;;;28.17;18.17;;;9.60;85.70;;;;;;5061924;28;20197;-67
2022/11/30 10:59:23;;;;;;;23.77;15.27;;;9.70;85.80;;;;;;5069074;28;20210;-67
2022/11/30 11:01:52;;;;;;;24.73;16.27;;;9.80;84.80;;;;;;5060448;28;20198;-67
2022/11/30 11:04:26;;;;;;;22.20;15.27;;;9.80;84.30;;;;;;5061828;28;20218;-67
2022/11/30 11:07:07;;;;;;;22.93;14.47;;;9.90;84.50;;;;;;5064521;28;20652;-67
2022/11/30 11:09:39;;;;;;;16.07;11.47;;;10.00;82.80;;;;;;5063495;28;20198;-67
2022/11/30 11:12:19;;;;;;;16.70;10.83;;;10.10;79.90;;;;;;5064124;28;20239;-67
2022/11/30 11:14:47;;;;;;;18.10;12.40;;;10.10;79.10;;;;;;5065780;28;20205;-67
2022/11/30 11:17:17;;;;;;;16.67;10.93;;;10.20;78.00;;;;;;5064611;28;20207;-67
2022/11/30 11:19:46;;;;;;;20.03;11.43;;;10.20;76.90;;;;;;5070126;28;20206;-67
2022/11/30 11:22:29;;;;;;;16.23;10.93;;;10.30;76.30;;;;;;5060015;28;20226;-67
2022/11/30 11:25:41;;;;;;;13.80;10.07;;;10.30;75.80;;;;;;5063244;28;20587;-67
2022/11/30 11:28:16;;;;;;;14.77;11.10;;;10.40;73.70;;;;;;5072018;28;20214;-67
2022/11/30 11:30:43;;;;;;;13.73;9.60;;;10.50;73.50;;;;;;5060102;28;20202;-67
2022/11/30 11:33:13;;;;;;;15.07;10.60;;;10.50;73.40;;;;;;5062260;28;20561;-67
2022/11/30 11:35:46;;;;;;;15.43;9.37;;;10.60;71.90;;;;;;5063621;28;20207;-68
2022/11/30 11:38:27;;;;;;;13.83;9.57;;;10.60;71.20;;;;;;5060284;28;20199;-67
2022/11/30 11:41:03;;;;;;;13.80;9.83;;;10.60;71.50;;;;;;5069253;28;20203;-67
2022/11/30 11:43:33;;;;;;;15.80;10.23;;;10.60;71.50;;;;;;5064186;28;20622;-67
2022/11/30 11:46:12;;;;;;;13.50;9.37;;;10.60;72.60;;;;;;5059805;28;20237;-67
2022/11/30 11:48:58;;;;;;;16.07;10.43;;;10.60;71.60;;;;;;5065117;28;20345;-67
2022/11/30 11:51:33;;;;;;;15.03;10.60;;;10.60;71.20;;;;;;5071259;28;20220;-69
2022/11/30 11:54:22;;;;;;;14.17;9.60;;;10.60;72.40;;;;;;5071832;28;20589;-67
2022/11/30 11:56:50;;;;;;;16.00;10.07;;;10.70;70.60;;;;;;5061629;28;20257;-67
2022/11/30 11:59:53;;;;;;;12.87;9.20;;;10.70;71.40;;;;;;5063014;28;20609;-67
2022/11/30 12:02:57;;;;;;;14.97;9.67;;;10.80;71.10;;;;;;5063850;28;20254;-67
2022/11/30 12:05:34;;;;;;;14.20;8.37;;;10.90;72.30;;;;;;5065046;28;20211;-67
2022/11/30 12:08:09;;;;;;;12.83;9.53;;;10.90;71.10;;;;;;5064452;28;20206;-67
2022/11/30 12:10:45;;;;;;;15.40;10.10;;;10.90;69.80;;;;;;5063771;28;20380;-68
2022/11/30 12:13:45;;;;;;;11.80;8.83;;;10.90;70.60;;;;;;5073302;28;20200;-68
2022/11/30 12:16:23;;;;;;;14.67;10.33;;;10.90;69.10;;;;;;5058231;28;20211;-68
2022/11/30 12:19:16;;;;;;;16.83;10.20;;;10.90;69.30;;;;;;5060811;28;20225;-68
2022/11/30 12:22:22;;;;;;;13.73;10.30;;;10.80;70.40;;;;;;5060760;28;20204;-68
2022/11/30 12:25:14;;;;;;;14.17;9.57;;;10.80;71.50;;;;;;5065005;28;20553;-68
2022/11/30 12:27:53;;;;;;;13.67;10.00;;;10.70;71.30;;;;;;5061769;28;20208;-68
2022/11/30 12:30:30;;;;;;;16.43;11.50;;;10.70;71.30;;;;;;5065951;28;20220;-68
2022/11/30 12:33:24;;;;;;;18.23;11.13;;;10.60;71.50;;;;;;5060400;28;20608;-68
2022/11/30 12:36:26;;;;;;;15.50;9.90;;;10.60;72.60;;;;;;5069577;28;20555;-66
2022/11/30 12:39:16;;;;;;;16.13;10.23;;;10.50;72.50;;;;;;5064041;28;20230;-66
2022/11/30 12:42:17;;;;;;;16.77;11.13;;;10.50;71.30;;;;;;5062695;28;20230;-66
2022/11/30 12:44:56;;;;;;;12.73;9.40;;;10.40;72.40;;;;;;5058555;28;20222;-67
2022/11/30 12:47:51;;;;;;;17.13;10.67;;;10.40;72.10;;;;;;5070919;28;20228;-67
2022/11/30 12:50:49;;;;;;;15.23;9.33;;;10.40;71.70;;;;;;5063876;28;20190;-67
2022/11/30 12:53:39;;;;;;;14.40;8.50;;;10.40;71.20;;;;;;5062001;28;20229;-67
2022/11/30 12:56:41;;;;;;;14.70;8.60;;;10.30;70.60;;;;;;5060696;28;20214;-67
2022/11/30 12:59:28;;;;;;;12.70;8.70;;;10.30;70.80;;;;;;5063155;28;20261;-67
2022/11/30 13:02:17;;;;;;;14.10;8.90;;;10.30;70.80;;;;;;5054551;28;20232;-66
2022/11/30 13:04:52;;;;;;;10.97;7.87;;;10.30;70.30;;;;;;5060194;28;20241;-67